Impacts TAF Board INFO
FOR SITUATIONAL AWARENESS. NOT TO BE USED FOR FLIGHT PLANNING PURPOSES.
IDs:

KTLH - Tallahassee Intl, FL, US

Issued at 0520 UTC 23 Feb 2018
Updated at 1037 UTC 23 Feb 2018
Potential Impact None Slight Moderate High
Time<<23/23Z 24/00Z 24/01Z 24/02Z 24/03Z 24/04Z 24/05Z 24/06Z 24/07Z 24/08Z 24/09Z 24/10Z 24/11Z>>
Type PRVL PRVL PRVL PRVL PRVL PRVL PRVL
VIS >6 >6 >6 >6 >6 >6 >6
CIG -- -- -- -- -- -- --
Cover SCT SCT SCT SCT SCT SCT SCT
FltCat VFR VFR VFR VFR VFR VFR VFR
WX -- -- -- -- -- -- --
WDir 140 140 140 140 140 140 140
WSpd 6 6 6 6 6 6 6
WGst -- -- -- -- -- -- --

Raw TAF
KTLH 230520Z 2306/2406 VRB04KT P6SM SCT040
  FM231000 12004KT P6SM BKN020
  FM231600 14006KT P6SM SCT030


METAR Board
Radar Display
Forecast Discussion

FOR SITUATIONAL AWARENESS. NOT TO BE USED FOR FLIGHT PLANNING PURPOSES.